Pagrindinis puslapis
METAR-TAF:

METAR-TAF

Oro uostai :

Bad Vöslau, Austrija

platuma: 47-57-52N, ilguma: 016-15-34E, Aukštis: 233 m

Dabartinis oras

Ataskaita buvo paskelbta 11 valandos ir 35 minutes, ne 15:00 UTC
Vėjas 6 kt iš Pietų/Pietryčių
Temperatūra 0°C
Drėgmė 100%
Slėgis
Matomumas: 1200 m
rūkana

METAR: LOAV 171500Z 15006KT 1200 BR VV005 M00/M00

Laikas: 03:35 (02:35 UTC)

Prognozė

Ataskaita buvo paskelbta 12 valandos ir 16 minutes, ne 14:19 UTC
Prognozė galioja nuo 17 metu 14 UTC su 17 metu 21 UTC
Vėjas 5 kt iš Pietryčių
Matomumas: 1200 m
Išsisklaidę debesys ne aukštis 200 ft
Su prošvaistėmis ne aukštis 500 ft
rūkana
Tikimybė 40% :
Laikinai
nuo 17 metu 14 UTC su 17 metu 21 UTC
Vėjas 11 kt iš Pietryčių
Matomumas: 4000 m
Su prošvaistėmis ne aukštis 700 ft

TAF: LOAV 171419Z 1714/1721 14005KT 1200 BR SCT002 BKN005 PROB40 TEMPO 1714/1721 13011KT 4000 BKN007

Orai ataskaitas ir orų prognozės (METAR, TAF).

turimą stotys yra geltonos ir raudonos taškus žemėlapyje.

Perkelti pele per norėdami pamatyti stoties vardą.

Tada spustelėkite, norėdami matyti oro stebėjimo ir prognozės.

Norėdami pakeisti žemėlapį: spustelėkite ant žalios mygtukų su juodo kryžiaus žemyn,; žalią mygtuką su brūkšneliu, jei norite nutolinti; arba žalių rodyklių gretimoms žemėlapius.


METAR-TAF: